sensor_id;sensor_type;location;lat;lon;timestamp;P1;durP1;ratioP1;P2;durP2;ratioP2
42198;SDS011;27868;45.184;5.786;2023-01-09T00:02:40;15.35;;;8.82;;
42198;SDS011;27868;45.184;5.786;2023-01-09T00:05:27;15.50;;;9.43;;
42198;SDS011;27868;45.184;5.786;2023-01-09T00:08:12;16.80;;;8.43;;
42198;SDS011;27868;45.184;5.786;2023-01-09T00:10:56;14.30;;;7.90;;
42198;SDS011;27868;45.184;5.786;2023-01-09T00:13:40;16.20;;;8.38;;
42198;SDS011;27868;45.184;5.786;2023-01-09T00:16:25;15.57;;;9.25;;
42198;SDS011;27868;45.184;5.786;2023-01-09T00:19:10;14.93;;;8.63;;
42198;SDS011;27868;45.184;5.786;2023-01-09T00:21:54;14.68;;;8.68;;
42198;SDS011;27868;45.184;5.786;2023-01-09T00:24:39;13.70;;;8.75;;
42198;SDS011;27868;45.184;5.786;2023-01-09T00:27:23;13.00;;;8.05;;
42198;SDS011;27868;45.184;5.786;2023-01-09T00:30:08;14.10;;;7.93;;
42198;SDS011;27868;45.184;5.786;2023-01-09T00:32:54;11.63;;;6.95;;
42198;SDS011;27868;45.184;5.786;2023-01-09T00:35:39;7.75;;;3.63;;
42198;SDS011;27868;45.184;5.786;2023-01-09T00:38:23;1.33;;;0.73;;
42198;SDS011;27868;45.184;5.786;2023-01-09T00:41:09;1.73;;;0.80;;
42198;SDS011;27868;45.184;5.786;2023-01-09T00:43:57;1.67;;;0.50;;
42198;SDS011;27868;45.184;5.786;2023-01-09T00:46:47;4.70;;;0.90;;
42198;SDS011;27868;45.184;5.786;2023-01-09T00:49:34;1.40;;;0.80;;
42198;SDS011;27868;45.184;5.786;2023-01-09T00:52:20;0.77;;;0.65;;
42198;SDS011;27868;45.184;5.786;2023-01-09T00:55:05;1.30;;;0.70;;
42198;SDS011;27868;45.184;5.786;2023-01-09T00:57:51;1.25;;;0.90;;
42198;SDS011;27868;45.184;5.786;2023-01-09T01:00:36;2.20;;;0.88;;
42198;SDS011;27868;45.184;5.786;2023-01-09T01:03:20;3.42;;;1.35;;
42198;SDS011;27868;45.184;5.786;2023-01-09T01:06:05;2.47;;;1.20;;
42198;SDS011;27868;45.184;5.786;2023-01-09T01:09:08;1.70;;;0.80;;
42198;SDS011;27868;45.184;5.786;2023-01-09T01:11:53;1.20;;;0.50;;
42198;SDS011;27868;45.184;5.786;2023-01-09T01:14:37;1.55;;;0.70;;
42198;SDS011;27868;45.184;5.786;2023-01-09T01:17:22;1.13;;;0.60;;
42198;SDS011;27868;45.184;5.786;2023-01-09T01:20:08;1.50;;;0.60;;
42198;SDS011;27868;45.184;5.786;2023-01-09T01:22:55;0.95;;;0.60;;
42198;SDS011;27868;45.184;5.786;2023-01-09T01:25:40;0.43;;;0.32;;
42198;SDS011;27868;45.184;5.786;2023-01-09T01:28:25;1.23;;;0.50;;
42198;SDS011;27868;45.184;5.786;2023-01-09T01:31:17;0.52;;;0.50;;
42198;SDS011;27868;45.184;5.786;2023-01-09T01:34:02;0.63;;;0.40;;
42198;SDS011;27868;45.184;5.786;2023-01-09T01:36:47;0.75;;;0.52;;
42198;SDS011;27868;45.184;5.786;2023-01-09T01:39:32;0.73;;;0.40;;
42198;SDS011;27868;45.184;5.786;2023-01-09T01:42:17;0.60;;;0.50;;
42198;SDS011;27868;45.184;5.786;2023-01-09T01:48:10;1.10;;;0.50;;
42198;SDS011;27868;45.184;5.786;2023-01-09T01:50:59;0.55;;;0.30;;
42198;SDS011;27868;45.184;5.786;2023-01-09T01:53:49;2.70;;;0.60;;
42198;SDS011;27868;45.184;5.786;2023-01-09T01:56:39;2.83;;;0.60;;
42198;SDS011;27868;45.184;5.786;2023-01-09T01:59:30;0.88;;;0.45;;
42198;SDS011;27868;45.184;5.786;2023-01-09T02:02:22;1.42;;;0.40;;
42198;SDS011;27868;45.184;5.786;2023-01-09T02:05:09;0.43;;;0.40;;
42198;SDS011;27868;45.184;5.786;2023-01-09T02:07:55;1.80;;;0.50;;
42198;SDS011;27868;45.184;5.786;2023-01-09T02:10:39;1.10;;;0.50;;
42198;SDS011;27868;45.184;5.786;2023-01-09T02:13:24;1.48;;;0.60;;
42198;SDS011;27868;45.184;5.786;2023-01-09T02:16:26;0.50;;;0.40;;
42198;SDS011;27868;45.184;5.786;2023-01-09T02:23:15;1.10;;;0.50;;
42198;SDS011;27868;45.184;5.786;2023-01-09T02:29:44;0.82;;;0.40;;
42198;SDS011;27868;45.184;5.786;2023-01-09T02:32:58;2.45;;;0.50;;
42198;SDS011;27868;45.184;5.786;2023-01-09T02:39:21;2.97;;;0.40;;
42198;SDS011;27868;45.184;5.786;2023-01-09T02:45:01;0.60;;;0.43;;
42198;SDS011;27868;45.184;5.786;2023-01-09T02:47:46;1.13;;;0.50;;
42198;SDS011;27868;45.184;5.786;2023-01-09T02:50:40;1.33;;;0.40;;
42198;SDS011;27868;45.184;5.786;2023-01-09T02:53:42;1.83;;;0.88;;
42198;SDS011;27868;45.184;5.786;2023-01-09T03:00:08;1.23;;;0.82;;
42198;SDS011;27868;45.184;5.786;2023-01-09T03:06:00;2.30;;;0.40;;
42198;SDS011;27868;45.184;5.786;2023-01-09T03:08:50;0.85;;;0.50;;
42198;SDS011;27868;45.184;5.786;2023-01-09T03:11:39;1.27;;;0.60;;
42198;SDS011;27868;45.184;5.786;2023-01-09T03:14:29;0.75;;;0.40;;
42198;SDS011;27868;45.184;5.786;2023-01-09T03:17:30;3.67;;;0.65;;
42198;SDS011;27868;45.184;5.786;2023-01-09T03:20:21;2.22;;;0.60;;
42198;SDS011;27868;45.184;5.786;2023-01-09T03:23:08;0.90;;;0.50;;
42198;SDS011;27868;45.184;5.786;2023-01-09T03:25:52;2.15;;;0.77;;
42198;SDS011;27868;45.184;5.786;2023-01-09T03:28:37;1.70;;;0.80;;
42198;SDS011;27868;45.184;5.786;2023-01-09T03:31:21;2.10;;;0.60;;
42198;SDS011;27868;45.184;5.786;2023-01-09T03:34:06;1.27;;;0.50;;
42198;SDS011;27868;45.184;5.786;2023-01-09T03:36:50;2.65;;;0.60;;
42198;SDS011;27868;45.184;5.786;2023-01-09T03:39:35;2.63;;;0.43;;
42198;SDS011;27868;45.184;5.786;2023-01-09T03:42:20;1.48;;;0.90;;
42198;SDS011;27868;45.184;5.786;2023-01-09T03:45:05;0.75;;;0.50;;
42198;SDS011;27868;45.184;5.786;2023-01-09T03:47:50;0.73;;;0.45;;
42198;SDS011;27868;45.184;5.786;2023-01-09T03:50:34;1.90;;;0.75;;
42198;SDS011;27868;45.184;5.786;2023-01-09T03:53:20;1.80;;;0.50;;
42198;SDS011;27868;45.184;5.786;2023-01-09T03:56:06;1.90;;;0.52;;
42198;SDS011;27868;45.184;5.786;2023-01-09T03:58:51;1.42;;;0.60;;
42198;SDS011;27868;45.184;5.786;2023-01-09T04:01:36;0.93;;;0.60;;
42198;SDS011;27868;45.184;5.786;2023-01-09T04:04:21;1.52;;;0.60;;
42198;SDS011;27868;45.184;5.786;2023-01-09T04:07:06;4.47;;;1.23;;
42198;SDS011;27868;45.184;5.786;2023-01-09T04:09:50;0.95;;;0.55;;
42198;SDS011;27868;45.184;5.786;2023-01-09T04:12:35;0.63;;;0.40;;
42198;SDS011;27868;45.184;5.786;2023-01-09T04:15:19;1.77;;;0.40;;
42198;SDS011;27868;45.184;5.786;2023-01-09T04:18:04;1.98;;;0.52;;
42198;SDS011;27868;45.184;5.786;2023-01-09T04:20:49;1.55;;;0.60;;
42198;SDS011;27868;45.184;5.786;2023-01-09T04:23:33;1.58;;;1.08;;
42198;SDS011;27868;45.184;5.786;2023-01-09T04:26:18;1.10;;;0.70;;
42198;SDS011;27868;45.184;5.786;2023-01-09T04:29:03;2.60;;;0.60;;
42198;SDS011;27868;45.184;5.786;2023-01-09T04:31:48;2.05;;;0.60;;
42198;SDS011;27868;45.184;5.786;2023-01-09T04:34:32;0.40;;;0.40;;
42198;SDS011;27868;45.184;5.786;2023-01-09T04:37:17;1.00;;;0.50;;
42198;SDS011;27868;45.184;5.786;2023-01-09T04:40:04;2.45;;;0.93;;
42198;SDS011;27868;45.184;5.786;2023-01-09T04:42:55;4.90;;;1.10;;
42198;SDS011;27868;45.184;5.786;2023-01-09T04:45:39;2.38;;;1.05;;
42198;SDS011;27868;45.184;5.786;2023-01-09T04:48:24;3.75;;;1.58;;
42198;SDS011;27868;45.184;5.786;2023-01-09T04:51:08;3.65;;;1.50;;
42198;SDS011;27868;45.184;5.786;2023-01-09T04:53:53;2.78;;;1.10;;
42198;SDS011;27868;45.184;5.786;2023-01-09T04:56:37;4.22;;;1.38;;
42198;SDS011;27868;45.184;5.786;2023-01-09T04:59:22;1.35;;;0.90;;
42198;SDS011;27868;45.184;5.786;2023-01-09T05:02:07;1.52;;;0.80;;
42198;SDS011;27868;45.184;5.786;2023-01-09T05:04:52;2.40;;;1.20;;
42198;SDS011;27868;45.184;5.786;2023-01-09T05:07:37;2.13;;;0.77;;
42198;SDS011;27868;45.184;5.786;2023-01-09T05:10:22;3.10;;;0.75;;
42198;SDS011;27868;45.184;5.786;2023-01-09T05:13:07;1.50;;;0.70;;
42198;SDS011;27868;45.184;5.786;2023-01-09T05:15:51;1.70;;;0.60;;
42198;SDS011;27868;45.184;5.786;2023-01-09T05:18:35;4.18;;;0.70;;
42198;SDS011;27868;45.184;5.786;2023-01-09T05:21:20;1.75;;;1.00;;
42198;SDS011;27868;45.184;5.786;2023-01-09T05:24:05;3.97;;;1.23;;
42198;SDS011;27868;45.184;5.786;2023-01-09T05:26:50;2.70;;;1.00;;
42198;SDS011;27868;45.184;5.786;2023-01-09T05:29:35;2.28;;;1.05;;
42198;SDS011;27868;45.184;5.786;2023-01-09T05:32:20;1.25;;;0.70;;
42198;SDS011;27868;45.184;5.786;2023-01-09T05:35:05;1.25;;;0.63;;
42198;SDS011;27868;45.184;5.786;2023-01-09T05:37:49;0.98;;;0.50;;
42198;SDS011;27868;45.184;5.786;2023-01-09T05:40:34;1.05;;;0.50;;
42198;SDS011;27868;45.184;5.786;2023-01-09T05:43:20;0.77;;;0.50;;
42198;SDS011;27868;45.184;5.786;2023-01-09T05:46:04;1.00;;;0.60;;
42198;SDS011;27868;45.184;5.786;2023-01-09T05:48:49;0.60;;;0.40;;
42198;SDS011;27868;45.184;5.786;2023-01-09T05:51:33;2.50;;;0.57;;
42198;SDS011;27868;45.184;5.786;2023-01-09T05:54:18;1.40;;;0.82;;
42198;SDS011;27868;45.184;5.786;2023-01-09T05:57:02;0.85;;;0.50;;
42198;SDS011;27868;45.184;5.786;2023-01-09T05:59:46;0.63;;;0.50;;
42198;SDS011;27868;45.184;5.786;2023-01-09T06:02:31;1.08;;;0.50;;
42198;SDS011;27868;45.184;5.786;2023-01-09T06:05:15;0.60;;;0.50;;
42198;SDS011;27868;45.184;5.786;2023-01-09T06:08:00;2.05;;;0.60;;
42198;SDS011;27868;45.184;5.786;2023-01-09T06:10:45;1.65;;;0.60;;
42198;SDS011;27868;45.184;5.786;2023-01-09T06:13:30;0.68;;;0.45;;
42198;SDS011;27868;45.184;5.786;2023-01-09T06:16:15;1.88;;;0.40;;
42198;SDS011;27868;45.184;5.786;2023-01-09T06:18:58;4.35;;;0.50;;
42198;SDS011;27868;45.184;5.786;2023-01-09T06:21:43;0.70;;;0.43;;
42198;SDS011;27868;45.184;5.786;2023-01-09T06:24:27;2.83;;;0.77;;
42198;SDS011;27868;45.184;5.786;2023-01-09T06:27:12;2.05;;;0.63;;
42198;SDS011;27868;45.184;5.786;2023-01-09T06:29:57;1.50;;;0.60;;
42198;SDS011;27868;45.184;5.786;2023-01-09T06:32:42;1.98;;;0.65;;
42198;SDS011;27868;45.184;5.786;2023-01-09T06:35:27;1.38;;;0.70;;
42198;SDS011;27868;45.184;5.786;2023-01-09T06:38:12;1.75;;;0.50;;
42198;SDS011;27868;45.184;5.786;2023-01-09T06:40:56;0.43;;;0.38;;
42198;SDS011;27868;45.184;5.786;2023-01-09T06:43:41;1.05;;;0.57;;
42198;SDS011;27868;45.184;5.786;2023-01-09T06:46:26;0.75;;;0.50;;
42198;SDS011;27868;45.184;5.786;2023-01-09T06:49:10;1.38;;;0.70;;
42198;SDS011;27868;45.184;5.786;2023-01-09T06:51:55;3.17;;;1.00;;
42198;SDS011;27868;45.184;5.786;2023-01-09T06:54:40;1.08;;;0.60;;
42198;SDS011;27868;45.184;5.786;2023-01-09T06:57:26;2.05;;;0.70;;
42198;SDS011;27868;45.184;5.786;2023-01-09T07:00:11;2.42;;;1.20;;
42198;SDS011;27868;45.184;5.786;2023-01-09T07:02:56;3.97;;;1.20;;
42198;SDS011;27868;45.184;5.786;2023-01-09T07:05:43;3.33;;;1.42;;
42198;SDS011;27868;45.184;5.786;2023-01-09T07:08:28;3.38;;;2.05;;
42198;SDS011;27868;45.184;5.786;2023-01-09T07:11:17;3.88;;;2.13;;
42198;SDS011;27868;45.184;5.786;2023-01-09T07:14:02;4.95;;;1.90;;
42198;SDS011;27868;45.184;5.786;2023-01-09T07:16:47;4.68;;;1.70;;
42198;SDS011;27868;45.184;5.786;2023-01-09T07:19:33;3.50;;;1.77;;
42198;SDS011;27868;45.184;5.786;2023-01-09T07:22:18;3.35;;;1.75;;
42198;SDS011;27868;45.184;5.786;2023-01-09T07:25:07;3.45;;;1.58;;
42198;SDS011;27868;45.184;5.786;2023-01-09T07:27:52;4.80;;;1.50;;
42198;SDS011;27868;45.184;5.786;2023-01-09T07:30:38;2.67;;;1.58;;
42198;SDS011;27868;45.184;5.786;2023-01-09T07:33:29;5.82;;;1.80;;
42198;SDS011;27868;45.184;5.786;2023-01-09T07:36:27;4.78;;;2.10;;
42198;SDS011;27868;45.184;5.786;2023-01-09T07:39:20;3.50;;;1.80;;
42198;SDS011;27868;45.184;5.786;2023-01-09T07:42:11;3.17;;;1.80;;
42198;SDS011;27868;45.184;5.786;2023-01-09T07:44:56;2.83;;;1.60;;
42198;SDS011;27868;45.184;5.786;2023-01-09T07:47:41;3.00;;;1.60;;
42198;SDS011;27868;45.184;5.786;2023-01-09T07:50:28;2.70;;;1.60;;
42198;SDS011;27868;45.184;5.786;2023-01-09T07:53:13;2.50;;;1.50;;
42198;SDS011;27868;45.184;5.786;2023-01-09T07:56:03;5.88;;;1.90;;
42198;SDS011;27868;45.184;5.786;2023-01-09T07:58:49;4.32;;;1.80;;
42198;SDS011;27868;45.184;5.786;2023-01-09T08:01:34;4.60;;;1.70;;
42198;SDS011;27868;45.184;5.786;2023-01-09T08:04:35;7.82;;;1.40;;
42198;SDS011;27868;45.184;5.786;2023-01-09T08:07:21;3.65;;;1.83;;
42198;SDS011;27868;45.184;5.786;2023-01-09T08:10:06;2.83;;;1.67;;
42198;SDS011;27868;45.184;5.786;2023-01-09T08:12:54;3.75;;;1.52;;
42198;SDS011;27868;45.184;5.786;2023-01-09T08:15:39;4.35;;;1.80;;
42198;SDS011;27868;45.184;5.786;2023-01-09T08:18:39;5.03;;;2.40;;
42198;SDS011;27868;45.184;5.786;2023-01-09T08:21:24;4.82;;;2.45;;
42198;SDS011;27868;45.184;5.786;2023-01-09T08:27:12;4.03;;;2.20;;
42198;SDS011;27868;45.184;5.786;2023-01-09T08:29:57;6.05;;;2.92;;
42198;SDS011;27868;45.184;5.786;2023-01-09T08:32:46;4.45;;;2.50;;
42198;SDS011;27868;45.184;5.786;2023-01-09T08:35:39;7.28;;;2.95;;
42198;SDS011;27868;45.184;5.786;2023-01-09T08:38:24;4.40;;;2.83;;
42198;SDS011;27868;45.184;5.786;2023-01-09T08:41:16;5.60;;;2.63;;
42198;SDS011;27868;45.184;5.786;2023-01-09T08:44:19;3.90;;;2.58;;
42198;SDS011;27868;45.184;5.786;2023-01-09T08:47:23;5.38;;;2.75;;
42198;SDS011;27868;45.184;5.786;2023-01-09T08:50:08;5.82;;;3.10;;
42198;SDS011;27868;45.184;5.786;2023-01-09T08:52:53;3.42;;;2.33;;
42198;SDS011;27868;45.184;5.786;2023-01-09T08:55:38;6.00;;;2.35;;
42198;SDS011;27868;45.184;5.786;2023-01-09T08:58:24;6.60;;;2.50;;
42198;SDS011;27868;45.184;5.786;2023-01-09T09:01:09;4.65;;;2.40;;
42198;SDS011;27868;45.184;5.786;2023-01-09T09:03:54;5.63;;;2.47;;
42198;SDS011;27868;45.184;5.786;2023-01-09T09:06:39;4.07;;;2.60;;
42198;SDS011;27868;45.184;5.786;2023-01-09T09:09:24;6.50;;;2.88;;
42198;SDS011;27868;45.184;5.786;2023-01-09T09:12:09;7.45;;;3.50;;
42198;SDS011;27868;45.184;5.786;2023-01-09T09:14:54;6.85;;;3.08;;
42198;SDS011;27868;45.184;5.786;2023-01-09T09:18:00;4.00;;;2.30;;
42198;SDS011;27868;45.184;5.786;2023-01-09T09:20:46;3.28;;;1.85;;
42198;SDS011;27868;45.184;5.786;2023-01-09T09:23:33;3.17;;;1.90;;
42198;SDS011;27868;45.184;5.786;2023-01-09T09:26:17;3.40;;;1.75;;
42198;SDS011;27868;45.184;5.786;2023-01-09T09:29:03;3.85;;;2.10;;
42198;SDS011;27868;45.184;5.786;2023-01-09T09:31:48;5.32;;;2.15;;
42198;SDS011;27868;45.184;5.786;2023-01-09T09:34:34;3.17;;;1.67;;
42198;SDS011;27868;45.184;5.786;2023-01-09T09:37:20;2.90;;;1.60;;
42198;SDS011;27868;45.184;5.786;2023-01-09T09:40:05;6.47;;;1.70;;
42198;SDS011;27868;45.184;5.786;2023-01-09T09:43:19;4.78;;;1.73;;
42198;SDS011;27868;45.184;5.786;2023-01-09T09:46:58;2.20;;;1.42;;
42198;SDS011;27868;45.184;5.786;2023-01-09T09:53:14;2.20;;;1.20;;
42198;SDS011;27868;45.184;5.786;2023-01-09T09:56:22;2.35;;;1.38;;
42198;SDS011;27868;45.184;5.786;2023-01-09T10:08:37;2.72;;;1.50;;
42198;SDS011;27868;45.184;5.786;2023-01-09T10:11:26;2.38;;;1.38;;
42198;SDS011;27868;45.184;5.786;2023-01-09T10:14:38;3.45;;;1.65;;
42198;SDS011;27868;45.184;5.786;2023-01-09T10:26:05;6.20;;;3.28;;
42198;SDS011;27868;45.184;5.786;2023-01-09T10:34:43;7.03;;;3.97;;
42198;SDS011;27868;45.184;5.786;2023-01-09T10:37:52;7.32;;;2.92;;
42198;SDS011;27868;45.184;5.786;2023-01-09T10:40:40;6.93;;;3.13;;
42198;SDS011;27868;45.184;5.786;2023-01-09T10:46:29;6.05;;;3.72;;
42198;SDS011;27868;45.184;5.786;2023-01-09T10:49:18;7.72;;;4.07;;
42198;SDS011;27868;45.184;5.786;2023-01-09T10:52:10;6.38;;;4.25;;
42198;SDS011;27868;45.184;5.786;2023-01-09T10:55:17;7.47;;;4.78;;
42198;SDS011;27868;45.184;5.786;2023-01-09T10:58:13;8.18;;;3.35;;
42198;SDS011;27868;45.184;5.786;2023-01-09T11:01:02;5.20;;;2.63;;
42198;SDS011;27868;45.184;5.786;2023-01-09T11:03:48;4.28;;;2.10;;
42198;SDS011;27868;45.184;5.786;2023-01-09T11:06:39;6.55;;;3.40;;
42198;SDS011;27868;45.184;5.786;2023-01-09T11:09:48;12.65;;;6.53;;
42198;SDS011;27868;45.184;5.786;2023-01-09T11:12:43;7.00;;;3.53;;
42198;SDS011;27868;45.184;5.786;2023-01-09T11:15:28;4.90;;;1.83;;
42198;SDS011;27868;45.184;5.786;2023-01-09T11:18:21;3.05;;;1.67;;
42198;SDS011;27868;45.184;5.786;2023-01-09T11:30:22;2.75;;;1.42;;
42198;SDS011;27868;45.184;5.786;2023-01-09T11:33:14;4.78;;;1.20;;
42198;SDS011;27868;45.184;5.786;2023-01-09T11:36:09;1.45;;;0.70;;
42198;SDS011;27868;45.184;5.786;2023-01-09T11:38:59;5.20;;;0.90;;
42198;SDS011;27868;45.184;5.786;2023-01-09T11:41:46;3.28;;;1.00;;
42198;SDS011;27868;45.184;5.786;2023-01-09T11:44:40;3.33;;;1.25;;
42198;SDS011;27868;45.184;5.786;2023-01-09T11:47:36;4.57;;;1.77;;
42198;SDS011;27868;45.184;5.786;2023-01-09T11:50:24;3.33;;;1.50;;
42198;SDS011;27868;45.184;5.786;2023-01-09T11:53:17;4.65;;;1.45;;
42198;SDS011;27868;45.184;5.786;2023-01-09T11:56:03;4.40;;;1.70;;
42198;SDS011;27868;45.184;5.786;2023-01-09T11:58:48;3.55;;;1.33;;
42198;SDS011;27868;45.184;5.786;2023-01-09T12:17:43;6.60;;;1.88;;
42198;SDS011;27868;45.184;5.786;2023-01-09T12:20:56;4.18;;;1.80;;
42198;SDS011;27868;45.184;5.786;2023-01-09T12:30:49;3.75;;;1.58;;
42198;SDS011;27868;45.184;5.786;2023-01-09T12:47:00;1.80;;;0.70;;
42198;SDS011;27868;45.184;5.786;2023-01-09T12:55:58;4.00;;;1.15;;
42198;SDS011;27868;45.184;5.786;2023-01-09T12:58:59;1.80;;;0.90;;
42198;SDS011;27868;45.184;5.786;2023-01-09T13:01:51;4.55;;;1.52;;
42198;SDS011;27868;45.184;5.786;2023-01-09T13:04:41;4.82;;;1.10;;
42198;SDS011;27868;45.184;5.786;2023-01-09T13:07:53;4.30;;;0.90;;
42198;SDS011;27868;45.184;5.786;2023-01-09T13:10:52;4.45;;;1.00;;
42198;SDS011;27868;45.184;5.786;2023-01-09T13:16:32;5.55;;;0.90;;
42198;SDS011;27868;45.184;5.786;2023-01-09T13:19:26;3.10;;;1.10;;
42198;SDS011;27868;45.184;5.786;2023-01-09T13:22:16;6.57;;;2.83;;
42198;SDS011;27868;45.184;5.786;2023-01-09T13:25:06;5.72;;;1.90;;
42198;SDS011;27868;45.184;5.786;2023-01-09T13:28:18;2.85;;;1.48;;
42198;SDS011;27868;45.184;5.786;2023-01-09T13:34:02;3.85;;;1.50;;
42198;SDS011;27868;45.184;5.786;2023-01-09T13:36:50;7.85;;;1.75;;
42198;SDS011;27868;45.184;5.786;2023-01-09T13:39:37;4.40;;;0.90;;
42198;SDS011;27868;45.184;5.786;2023-01-09T13:42:22;1.17;;;0.60;;
42198;SDS011;27868;45.184;5.786;2023-01-09T13:45:25;5.55;;;0.80;;
42198;SDS011;27868;45.184;5.786;2023-01-09T13:57:41;2.97;;;0.90;;
42198;SDS011;27868;45.184;5.786;2023-01-09T14:00:48;2.92;;;1.05;;
42198;SDS011;27868;45.184;5.786;2023-01-09T14:03:36;1.73;;;0.70;;
42198;SDS011;27868;45.184;5.786;2023-01-09T14:06:21;4.20;;;0.73;;
42198;SDS011;27868;45.184;5.786;2023-01-09T14:09:20;4.22;;;0.75;;
42198;SDS011;27868;45.184;5.786;2023-01-09T14:12:06;4.32;;;0.80;;
42198;SDS011;27868;45.184;5.786;2023-01-09T14:14:51;5.80;;;1.33;;
42198;SDS011;27868;45.184;5.786;2023-01-09T14:17:40;6.13;;;1.70;;
42198;SDS011;27868;45.184;5.786;2023-01-09T14:20:27;4.65;;;0.80;;
42198;SDS011;27868;45.184;5.786;2023-01-09T14:23:23;3.47;;;1.10;;
42198;SDS011;27868;45.184;5.786;2023-01-09T14:26:16;2.33;;;0.90;;
42198;SDS011;27868;45.184;5.786;2023-01-09T14:41:04;7.03;;;1.67;;
42198;SDS011;27868;45.184;5.786;2023-01-09T14:44:05;5.35;;;1.20;;
42198;SDS011;27868;45.184;5.786;2023-01-09T14:47:13;1.88;;;0.90;;
42198;SDS011;27868;45.184;5.786;2023-01-09T14:53:38;5.10;;;1.65;;
42198;SDS011;27868;45.184;5.786;2023-01-09T14:56:29;3.30;;;1.00;;
42198;SDS011;27868;45.184;5.786;2023-01-09T14:59:16;4.47;;;1.17;;
42198;SDS011;27868;45.184;5.786;2023-01-09T15:02:01;2.30;;;1.23;;
42198;SDS011;27868;45.184;5.786;2023-01-09T15:04:45;4.28;;;1.35;;
42198;SDS011;27868;45.184;5.786;2023-01-09T15:07:30;5.07;;;1.20;;
42198;SDS011;27868;45.184;5.786;2023-01-09T15:10:34;5.43;;;0.95;;
42198;SDS011;27868;45.184;5.786;2023-01-09T15:16:19;4.13;;;1.00;;
42198;SDS011;27868;45.184;5.786;2023-01-09T15:19:06;5.47;;;1.77;;
42198;SDS011;27868;45.184;5.786;2023-01-09T15:25:22;4.55;;;1.23;;
42198;SDS011;27868;45.184;5.786;2023-01-09T15:28:30;4.90;;;1.30;;
42198;SDS011;27868;45.184;5.786;2023-01-09T15:31:16;3.15;;;1.17;;
42198;SDS011;27868;45.184;5.786;2023-01-09T15:34:04;6.85;;;1.23;;
42198;SDS011;27868;45.184;5.786;2023-01-09T15:36:49;6.25;;;1.48;;
42198;SDS011;27868;45.184;5.786;2023-01-09T15:39:35;4.00;;;0.80;;
42198;SDS011;27868;45.184;5.786;2023-01-09T15:42:25;5.85;;;1.20;;
42198;SDS011;27868;45.184;5.786;2023-01-09T15:45:41;3.40;;;1.17;;
42198;SDS011;27868;45.184;5.786;2023-01-09T15:48:29;11.25;;;3.55;;
42198;SDS011;27868;45.184;5.786;2023-01-09T15:51:18;4.10;;;1.50;;
42198;SDS011;27868;45.184;5.786;2023-01-09T15:54:04;4.15;;;1.77;;
42198;SDS011;27868;45.184;5.786;2023-01-09T15:56:49;27.80;;;2.40;;
42198;SDS011;27868;45.184;5.786;2023-01-09T15:59:34;4.20;;;1.40;;
42198;SDS011;27868;45.184;5.786;2023-01-09T16:02:21;3.42;;;1.20;;
42198;SDS011;27868;45.184;5.786;2023-01-09T16:05:26;3.28;;;1.20;;
42198;SDS011;27868;45.184;5.786;2023-01-09T16:08:18;2.75;;;1.45;;
42198;SDS011;27868;45.184;5.786;2023-01-09T16:11:05;5.15;;;2.42;;
42198;SDS011;27868;45.184;5.786;2023-01-09T16:13:51;2.85;;;1.55;;
42198;SDS011;27868;45.184;5.786;2023-01-09T16:16:38;2.85;;;1.23;;
42198;SDS011;27868;45.184;5.786;2023-01-09T16:19:57;6.13;;;2.30;;
42198;SDS011;27868;45.184;5.786;2023-01-09T16:22:54;4.70;;;2.17;;
42198;SDS011;27868;45.184;5.786;2023-01-09T16:25:40;10.00;;;4.00;;
42198;SDS011;27868;45.184;5.786;2023-01-09T16:28:24;10.02;;;3.40;;
42198;SDS011;27868;45.184;5.786;2023-01-09T16:31:24;59.35;;;27.90;;
42198;SDS011;27868;45.184;5.786;2023-01-09T16:34:11;13.10;;;6.18;;
42198;SDS011;27868;45.184;5.786;2023-01-09T16:36:56;7.40;;;2.78;;
42198;SDS011;27868;45.184;5.786;2023-01-09T16:39:42;5.22;;;1.63;;
42198;SDS011;27868;45.184;5.786;2023-01-09T16:42:56;6.97;;;2.15;;
42198;SDS011;27868;45.184;5.786;2023-01-09T16:45:46;7.15;;;2.97;;
42198;SDS011;27868;45.184;5.786;2023-01-09T16:48:31;4.35;;;1.58;;
42198;SDS011;27868;45.184;5.786;2023-01-09T16:51:18;3.72;;;1.52;;
42198;SDS011;27868;45.184;5.786;2023-01-09T16:54:04;2.05;;;1.08;;
42198;SDS011;27868;45.184;5.786;2023-01-09T16:56:50;16.60;;;8.50;;
42198;SDS011;27868;45.184;5.786;2023-01-09T16:59:40;4.43;;;2.55;;
42198;SDS011;27868;45.184;5.786;2023-01-09T17:02:25;4.22;;;2.05;;
42198;SDS011;27868;45.184;5.786;2023-01-09T17:05:10;14.00;;;6.45;;
42198;SDS011;27868;45.184;5.786;2023-01-09T17:07:55;29.52;;;13.70;;
42198;SDS011;27868;45.184;5.786;2023-01-09T17:10:39;8.45;;;3.50;;
42198;SDS011;27868;45.184;5.786;2023-01-09T17:13:24;16.17;;;7.45;;
42198;SDS011;27868;45.184;5.786;2023-01-09T17:16:09;14.23;;;6.50;;
42198;SDS011;27868;45.184;5.786;2023-01-09T17:18:54;11.32;;;5.50;;
42198;SDS011;27868;45.184;5.786;2023-01-09T17:21:39;13.02;;;5.45;;
42198;SDS011;27868;45.184;5.786;2023-01-09T17:24:23;11.65;;;5.18;;
42198;SDS011;27868;45.184;5.786;2023-01-09T17:27:29;13.57;;;6.25;;
42198;SDS011;27868;45.184;5.786;2023-01-09T17:30:38;9.05;;;4.20;;
42198;SDS011;27868;45.184;5.786;2023-01-09T17:33:23;24.65;;;11.52;;
42198;SDS011;27868;45.184;5.786;2023-01-09T17:36:41;9.95;;;5.38;;
42198;SDS011;27868;45.184;5.786;2023-01-09T17:39:19;20.52;;;9.98;;
42198;SDS011;27868;45.184;5.786;2023-01-09T17:42:04;22.33;;;11.20;;
42198;SDS011;27868;45.184;5.786;2023-01-09T17:44:48;4.55;;;2.63;;
42198;SDS011;27868;45.184;5.786;2023-01-09T17:47:33;9.43;;;4.93;;
42198;SDS011;27868;45.184;5.786;2023-01-09T17:50:18;8.88;;;4.72;;
42198;SDS011;27868;45.184;5.786;2023-01-09T17:53:04;10.98;;;5.43;;
42198;SDS011;27868;45.184;5.786;2023-01-09T17:55:49;12.88;;;6.72;;
42198;SDS011;27868;45.184;5.786;2023-01-09T17:58:34;10.43;;;7.18;;
42198;SDS011;27868;45.184;5.786;2023-01-09T18:01:18;7.60;;;5.78;;
42198;SDS011;27868;45.184;5.786;2023-01-09T18:04:04;10.35;;;6.53;;
42198;SDS011;27868;45.184;5.786;2023-01-09T18:06:49;8.43;;;4.80;;
42198;SDS011;27868;45.184;5.786;2023-01-09T18:09:34;11.73;;;5.88;;
42198;SDS011;27868;45.184;5.786;2023-01-09T18:12:18;11.68;;;4.88;;
42198;SDS011;27868;45.184;5.786;2023-01-09T18:15:03;9.73;;;4.80;;
42198;SDS011;27868;45.184;5.786;2023-01-09T18:17:49;12.98;;;6.50;;
42198;SDS011;27868;45.184;5.786;2023-01-09T18:20:41;13.98;;;7.53;;
42198;SDS011;27868;45.184;5.786;2023-01-09T18:23:27;9.75;;;5.78;;
42198;SDS011;27868;45.184;5.786;2023-01-09T18:26:12;5.68;;;2.90;;
42198;SDS011;27868;45.184;5.786;2023-01-09T18:29:03;5.93;;;2.83;;
42198;SDS011;27868;45.184;5.786;2023-01-09T18:31:48;4.93;;;2.65;;
42198;SDS011;27868;45.184;5.786;2023-01-09T18:34:34;7.32;;;2.80;;
42198;SDS011;27868;45.184;5.786;2023-01-09T18:37:18;5.97;;;2.80;;
42198;SDS011;27868;45.184;5.786;2023-01-09T18:40:03;8.32;;;4.13;;
42198;SDS011;27868;45.184;5.786;2023-01-09T18:42:49;6.82;;;3.13;;
42198;SDS011;27868;45.184;5.786;2023-01-09T18:45:35;8.98;;;4.47;;
42198;SDS011;27868;45.184;5.786;2023-01-09T18:48:21;6.55;;;3.88;;
42198;SDS011;27868;45.184;5.786;2023-01-09T18:51:06;9.30;;;4.28;;
42198;SDS011;27868;45.184;5.786;2023-01-09T18:53:51;8.82;;;4.13;;
42198;SDS011;27868;45.184;5.786;2023-01-09T18:56:36;8.07;;;4.05;;
42198;SDS011;27868;45.184;5.786;2023-01-09T18:59:22;8.45;;;3.92;;
42198;SDS011;27868;45.184;5.786;2023-01-09T19:02:12;11.35;;;6.07;;
42198;SDS011;27868;45.184;5.786;2023-01-09T19:05:05;12.75;;;7.22;;
42198;SDS011;27868;45.184;5.786;2023-01-09T19:07:50;19.67;;;12.60;;
42198;SDS011;27868;45.184;5.786;2023-01-09T19:10:36;19.52;;;10.13;;
42198;SDS011;27868;45.184;5.786;2023-01-09T19:13:20;15.50;;;5.20;;
42198;SDS011;27868;45.184;5.786;2023-01-09T19:16:06;43.40;;;24.05;;
42198;SDS011;27868;45.184;5.786;2023-01-09T19:18:51;30.95;;;17.13;;
42198;SDS011;27868;45.184;5.786;2023-01-09T19:21:36;45.22;;;24.08;;